Dermott, Arkansas
Current Conditions -  °F | °C
As of 11:08 AM on Thursday 18 Dec 2014 (Local Time) from KLLQ Reporting Station
Overcast Overcast  
Wind Chill: 42°   Ceiling: 2500
Heat Index: 46°   Visibility: 10mi
Dew Point: 42°   Wind: 7mph
Humidity: 86%   Direction: 90°E
Pressure: 30.21"   Gusts: NA
Location:  33.53°N, 91.44°W
Report Text: KLLQ 181708Z AUTO 09006KT 10SM SCT007 BKN025 OVC035 08/06 A3021 RMK AO2 T00780056
Loading
Personal Weather Stations






























Interactive Weather Map New forecast layout! Learn more

10-Day Weather Forecast

Advertisements
Track Severe Weather on mobile